sensor_id;sensor_type;location;lat;lon;timestamp;P1;durP1;ratioP1;P2;durP2;ratioP2
21103;SDS011;10710;53.398;-1.514;2023-04-06T00:01:14;2.78;;;1.40;;
21103;SDS011;10710;53.398;-1.514;2023-04-06T00:03:58;2.90;;;1.80;;
21103;SDS011;10710;53.398;-1.514;2023-04-06T00:06:42;2.95;;;1.95;;
21103;SDS011;10710;53.398;-1.514;2023-04-06T00:09:26;4.20;;;1.80;;
21103;SDS011;10710;53.398;-1.514;2023-04-06T00:12:10;3.97;;;2.00;;
21103;SDS011;10710;53.398;-1.514;2023-04-06T00:14:55;2.50;;;1.40;;
21103;SDS011;10710;53.398;-1.514;2023-04-06T00:17:39;5.07;;;1.73;;
21103;SDS011;10710;53.398;-1.514;2023-04-06T00:20:24;2.05;;;1.60;;
21103;SDS011;10710;53.398;-1.514;2023-04-06T00:23:08;2.80;;;1.50;;
21103;SDS011;10710;53.398;-1.514;2023-04-06T00:25:53;2.45;;;1.48;;
21103;SDS011;10710;53.398;-1.514;2023-04-06T00:28:38;2.08;;;1.38;;
21103;SDS011;10710;53.398;-1.514;2023-04-06T00:31:22;3.65;;;1.30;;
21103;SDS011;10710;53.398;-1.514;2023-04-06T00:34:07;2.95;;;1.40;;
21103;SDS011;10710;53.398;-1.514;2023-04-06T00:36:51;4.20;;;1.98;;
21103;SDS011;10710;53.398;-1.514;2023-04-06T00:39:35;2.65;;;1.70;;
21103;SDS011;10710;53.398;-1.514;2023-04-06T00:42:19;2.20;;;1.50;;
21103;SDS011;10710;53.398;-1.514;2023-04-06T00:45:09;2.17;;;1.30;;
21103;SDS011;10710;53.398;-1.514;2023-04-06T00:47:54;2.80;;;1.50;;
21103;SDS011;10710;53.398;-1.514;2023-04-06T00:50:38;2.07;;;1.37;;
21103;SDS011;10710;53.398;-1.514;2023-04-06T00:53:23;2.65;;;1.40;;
21103;SDS011;10710;53.398;-1.514;2023-04-06T00:56:07;3.38;;;1.75;;
21103;SDS011;10710;53.398;-1.514;2023-04-06T00:58:53;1.92;;;1.30;;
21103;SDS011;10710;53.398;-1.514;2023-04-06T01:01:38;2.35;;;1.40;;
21103;SDS011;10710;53.398;-1.514;2023-04-06T01:04:22;4.22;;;1.52;;
21103;SDS011;10710;53.398;-1.514;2023-04-06T01:07:06;1.75;;;1.35;;
21103;SDS011;10710;53.398;-1.514;2023-04-06T01:09:52;3.03;;;1.70;;
21103;SDS011;10710;53.398;-1.514;2023-04-06T01:12:39;2.40;;;1.42;;
21103;SDS011;10710;53.398;-1.514;2023-04-06T01:15:23;2.63;;;1.70;;
21103;SDS011;10710;53.398;-1.514;2023-04-06T01:18:09;2.93;;;1.77;;
21103;SDS011;10710;53.398;-1.514;2023-04-06T01:20:54;3.05;;;1.98;;
21103;SDS011;10710;53.398;-1.514;2023-04-06T01:23:38;4.78;;;2.80;;
21103;SDS011;10710;53.398;-1.514;2023-04-06T01:26:23;5.38;;;2.53;;
21103;SDS011;10710;53.398;-1.514;2023-04-06T01:29:07;5.50;;;2.28;;
21103;SDS011;10710;53.398;-1.514;2023-04-06T01:31:52;4.75;;;2.22;;
21103;SDS011;10710;53.398;-1.514;2023-04-06T01:34:37;3.05;;;1.75;;
21103;SDS011;10710;53.398;-1.514;2023-04-06T01:37:21;3.35;;;1.90;;
21103;SDS011;10710;53.398;-1.514;2023-04-06T01:40:05;2.65;;;2.03;;
21103;SDS011;10710;53.398;-1.514;2023-04-06T01:42:50;3.47;;;2.15;;
21103;SDS011;10710;53.398;-1.514;2023-04-06T01:45:35;3.92;;;2.15;;
21103;SDS011;10710;53.398;-1.514;2023-04-06T01:48:19;4.28;;;2.50;;
21103;SDS011;10710;53.398;-1.514;2023-04-06T01:51:03;4.32;;;2.40;;
21103;SDS011;10710;53.398;-1.514;2023-04-06T01:53:48;4.55;;;2.20;;
21103;SDS011;10710;53.398;-1.514;2023-04-06T01:56:33;4.47;;;2.47;;
21103;SDS011;10710;53.398;-1.514;2023-04-06T01:59:17;4.60;;;2.30;;
21103;SDS011;10710;53.398;-1.514;2023-04-06T02:02:01;5.45;;;2.55;;
21103;SDS011;10710;53.398;-1.514;2023-04-06T02:04:45;4.55;;;2.45;;
21103;SDS011;10710;53.398;-1.514;2023-04-06T02:07:30;3.73;;;1.93;;
21103;SDS011;10710;53.398;-1.514;2023-04-06T02:10:14;2.92;;;1.85;;
21103;SDS011;10710;53.398;-1.514;2023-04-06T02:12:59;4.87;;;2.50;;
21103;SDS011;10710;53.398;-1.514;2023-04-06T02:15:43;3.75;;;2.15;;
21103;SDS011;10710;53.398;-1.514;2023-04-06T02:18:28;5.03;;;2.50;;
21103;SDS011;10710;53.398;-1.514;2023-04-06T02:21:13;4.28;;;2.22;;
21103;SDS011;10710;53.398;-1.514;2023-04-06T02:24:01;6.13;;;1.95;;
21103;SDS011;10710;53.398;-1.514;2023-04-06T02:26:45;4.07;;;1.95;;
21103;SDS011;10710;53.398;-1.514;2023-04-06T02:29:29;3.35;;;1.80;;
21103;SDS011;10710;53.398;-1.514;2023-04-06T02:32:13;3.33;;;1.95;;
21103;SDS011;10710;53.398;-1.514;2023-04-06T02:34:57;4.10;;;2.10;;
21103;SDS011;10710;53.398;-1.514;2023-04-06T02:37:41;5.53;;;2.45;;
21103;SDS011;10710;53.398;-1.514;2023-04-06T02:40:26;3.88;;;1.88;;
21103;SDS011;10710;53.398;-1.514;2023-04-06T02:43:10;3.67;;;1.92;;
21103;SDS011;10710;53.398;-1.514;2023-04-06T02:45:54;3.75;;;1.95;;
21103;SDS011;10710;53.398;-1.514;2023-04-06T02:48:39;3.42;;;1.80;;
21103;SDS011;10710;53.398;-1.514;2023-04-06T02:51:23;2.30;;;1.80;;
21103;SDS011;10710;53.398;-1.514;2023-04-06T02:54:07;4.20;;;1.70;;
21103;SDS011;10710;53.398;-1.514;2023-04-06T02:56:52;3.10;;;1.60;;
21103;SDS011;10710;53.398;-1.514;2023-04-06T02:59:36;1.35;;;1.00;;
21103;SDS011;10710;53.398;-1.514;2023-04-06T03:02:20;2.22;;;0.98;;
21103;SDS011;10710;53.398;-1.514;2023-04-06T03:05:04;1.10;;;0.82;;
21103;SDS011;10710;53.398;-1.514;2023-04-06T03:07:49;2.15;;;0.98;;
21103;SDS011;10710;53.398;-1.514;2023-04-06T03:10:33;1.73;;;0.80;;
21103;SDS011;10710;53.398;-1.514;2023-04-06T03:13:17;1.27;;;0.85;;
21103;SDS011;10710;53.398;-1.514;2023-04-06T03:16:02;1.55;;;0.90;;
21103;SDS011;10710;53.398;-1.514;2023-04-06T03:18:46;0.95;;;0.80;;
21103;SDS011;10710;53.398;-1.514;2023-04-06T03:21:31;1.20;;;0.60;;
21103;SDS011;10710;53.398;-1.514;2023-04-06T03:24:15;0.80;;;0.70;;
21103;SDS011;10710;53.398;-1.514;2023-04-06T03:26:59;1.00;;;0.80;;
21103;SDS011;10710;53.398;-1.514;2023-04-06T03:29:44;1.08;;;0.82;;
21103;SDS011;10710;53.398;-1.514;2023-04-06T03:32:28;2.65;;;1.08;;
21103;SDS011;10710;53.398;-1.514;2023-04-06T03:35:13;1.20;;;0.80;;
21103;SDS011;10710;53.398;-1.514;2023-04-06T03:37:57;0.70;;;0.70;;
21103;SDS011;10710;53.398;-1.514;2023-04-06T03:40:41;1.40;;;0.70;;
21103;SDS011;10710;53.398;-1.514;2023-04-06T03:43:26;1.37;;;0.70;;
21103;SDS011;10710;53.398;-1.514;2023-04-06T03:46:10;1.15;;;0.75;;
21103;SDS011;10710;53.398;-1.514;2023-04-06T03:48:54;1.10;;;0.60;;
21103;SDS011;10710;53.398;-1.514;2023-04-06T03:51:39;1.63;;;0.50;;
21103;SDS011;10710;53.398;-1.514;2023-04-06T03:54:23;0.60;;;0.50;;
21103;SDS011;10710;53.398;-1.514;2023-04-06T03:57:07;0.68;;;0.68;;
21103;SDS011;10710;53.398;-1.514;2023-04-06T03:59:51;1.13;;;0.60;;
21103;SDS011;10710;53.398;-1.514;2023-04-06T04:02:35;0.57;;;0.57;;
21103;SDS011;10710;53.398;-1.514;2023-04-06T04:05:19;0.75;;;0.60;;
21103;SDS011;10710;53.398;-1.514;2023-04-06T04:08:08;0.85;;;0.55;;
21103;SDS011;10710;53.398;-1.514;2023-04-06T04:10:52;1.70;;;0.80;;
21103;SDS011;10710;53.398;-1.514;2023-04-06T04:13:36;1.88;;;0.80;;
21103;SDS011;10710;53.398;-1.514;2023-04-06T04:16:21;1.70;;;1.00;;
21103;SDS011;10710;53.398;-1.514;2023-04-06T04:19:06;0.70;;;0.70;;
21103;SDS011;10710;53.398;-1.514;2023-04-06T04:21:50;1.00;;;0.60;;
21103;SDS011;10710;53.398;-1.514;2023-04-06T04:24:34;1.23;;;0.90;;
21103;SDS011;10710;53.398;-1.514;2023-04-06T04:27:19;1.77;;;0.90;;
21103;SDS011;10710;53.398;-1.514;2023-04-06T04:30:05;1.77;;;1.27;;
21103;SDS011;10710;53.398;-1.514;2023-04-06T04:32:50;2.30;;;1.40;;
21103;SDS011;10710;53.398;-1.514;2023-04-06T04:35:34;1.38;;;0.80;;
21103;SDS011;10710;53.398;-1.514;2023-04-06T04:38:19;0.93;;;0.88;;
21103;SDS011;10710;53.398;-1.514;2023-04-06T04:41:03;1.05;;;0.70;;
21103;SDS011;10710;53.398;-1.514;2023-04-06T04:43:47;1.60;;;1.00;;
21103;SDS011;10710;53.398;-1.514;2023-04-06T04:46:31;4.80;;;1.00;;
21103;SDS011;10710;53.398;-1.514;2023-04-06T04:49:15;1.48;;;1.00;;
21103;SDS011;10710;53.398;-1.514;2023-04-06T04:52:00;3.27;;;1.20;;
21103;SDS011;10710;53.398;-1.514;2023-04-06T04:54:44;2.03;;;1.53;;
21103;SDS011;10710;53.398;-1.514;2023-04-06T04:57:31;2.10;;;1.50;;
21103;SDS011;10710;53.398;-1.514;2023-04-06T05:00:15;3.65;;;1.67;;
21103;SDS011;10710;53.398;-1.514;2023-04-06T05:03:00;3.83;;;1.90;;
21103;SDS011;10710;53.398;-1.514;2023-04-06T05:05:44;2.10;;;1.42;;
21103;SDS011;10710;53.398;-1.514;2023-04-06T05:08:28;4.22;;;1.90;;
21103;SDS011;10710;53.398;-1.514;2023-04-06T05:11:12;4.22;;;1.85;;
21103;SDS011;10710;53.398;-1.514;2023-04-06T05:13:57;2.55;;;1.77;;
21103;SDS011;10710;53.398;-1.514;2023-04-06T05:16:41;3.87;;;1.93;;
21103;SDS011;10710;53.398;-1.514;2023-04-06T05:19:25;3.90;;;1.58;;
21103;SDS011;10710;53.398;-1.514;2023-04-06T05:22:09;4.00;;;1.80;;
21103;SDS011;10710;53.398;-1.514;2023-04-06T05:24:53;4.57;;;1.85;;
21103;SDS011;10710;53.398;-1.514;2023-04-06T05:27:37;4.95;;;2.08;;
21103;SDS011;10710;53.398;-1.514;2023-04-06T05:30:22;3.42;;;1.75;;
21103;SDS011;10710;53.398;-1.514;2023-04-06T05:33:06;2.65;;;1.60;;
21103;SDS011;10710;53.398;-1.514;2023-04-06T05:35:50;4.00;;;2.17;;
21103;SDS011;10710;53.398;-1.514;2023-04-06T05:38:34;3.35;;;2.13;;
21103;SDS011;10710;53.398;-1.514;2023-04-06T05:41:19;4.32;;;2.38;;
21103;SDS011;10710;53.398;-1.514;2023-04-06T05:44:04;5.13;;;2.20;;
21103;SDS011;10710;53.398;-1.514;2023-04-06T05:46:48;5.18;;;1.83;;
21103;SDS011;10710;53.398;-1.514;2023-04-06T05:49:33;4.03;;;2.37;;
21103;SDS011;10710;53.398;-1.514;2023-04-06T05:52:18;5.05;;;2.53;;
21103;SDS011;10710;53.398;-1.514;2023-04-06T05:55:03;4.82;;;2.58;;
21103;SDS011;10710;53.398;-1.514;2023-04-06T05:57:48;3.72;;;2.40;;
21103;SDS011;10710;53.398;-1.514;2023-04-06T06:00:32;4.00;;;2.10;;
21103;SDS011;10710;53.398;-1.514;2023-04-06T06:03:18;5.88;;;2.38;;
21103;SDS011;10710;53.398;-1.514;2023-04-06T06:06:03;3.30;;;1.97;;
21103;SDS011;10710;53.398;-1.514;2023-04-06T06:08:48;4.03;;;2.38;;
21103;SDS011;10710;53.398;-1.514;2023-04-06T06:11:32;4.53;;;2.58;;
21103;SDS011;10710;53.398;-1.514;2023-04-06T06:14:17;4.80;;;2.10;;
21103;SDS011;10710;53.398;-1.514;2023-04-06T06:17:01;6.68;;;2.55;;
21103;SDS011;10710;53.398;-1.514;2023-04-06T06:19:45;5.72;;;2.40;;
21103;SDS011;10710;53.398;-1.514;2023-04-06T06:22:29;4.60;;;2.60;;
21103;SDS011;10710;53.398;-1.514;2023-04-06T06:25:14;5.47;;;2.50;;
21103;SDS011;10710;53.398;-1.514;2023-04-06T06:27:59;3.58;;;2.00;;
21103;SDS011;10710;53.398;-1.514;2023-04-06T06:30:43;4.70;;;2.30;;
21103;SDS011;10710;53.398;-1.514;2023-04-06T06:33:27;5.82;;;2.20;;
21103;SDS011;10710;53.398;-1.514;2023-04-06T06:36:11;3.65;;;2.22;;
21103;SDS011;10710;53.398;-1.514;2023-04-06T06:38:56;4.40;;;2.20;;
21103;SDS011;10710;53.398;-1.514;2023-04-06T06:41:40;4.60;;;1.88;;
21103;SDS011;10710;53.398;-1.514;2023-04-06T06:44:25;4.30;;;1.70;;
21103;SDS011;10710;53.398;-1.514;2023-04-06T06:47:09;5.30;;;1.70;;
21103;SDS011;10710;53.398;-1.514;2023-04-06T06:49:53;3.63;;;1.52;;
21103;SDS011;10710;53.398;-1.514;2023-04-06T06:52:37;3.28;;;1.73;;
21103;SDS011;10710;53.398;-1.514;2023-04-06T06:55:21;3.10;;;1.75;;
21103;SDS011;10710;53.398;-1.514;2023-04-06T06:58:05;3.40;;;1.60;;
21103;SDS011;10710;53.398;-1.514;2023-04-06T07:00:50;3.22;;;1.38;;
21103;SDS011;10710;53.398;-1.514;2023-04-06T07:03:34;2.50;;;1.55;;
21103;SDS011;10710;53.398;-1.514;2023-04-06T07:06:18;2.20;;;1.10;;
21103;SDS011;10710;53.398;-1.514;2023-04-06T07:09:03;1.67;;;0.95;;
21103;SDS011;10710;53.398;-1.514;2023-04-06T07:11:47;2.60;;;1.05;;
21103;SDS011;10710;53.398;-1.514;2023-04-06T07:14:31;1.67;;;0.80;;
21103;SDS011;10710;53.398;-1.514;2023-04-06T07:17:16;1.30;;;1.00;;
21103;SDS011;10710;53.398;-1.514;2023-04-06T07:20:00;0.85;;;0.80;;
21103;SDS011;10710;53.398;-1.514;2023-04-06T07:22:44;0.85;;;0.70;;
21103;SDS011;10710;53.398;-1.514;2023-04-06T07:25:29;1.00;;;0.82;;
21103;SDS011;10710;53.398;-1.514;2023-04-06T07:28:13;1.58;;;0.90;;
21103;SDS011;10710;53.398;-1.514;2023-04-06T07:30:57;3.03;;;1.00;;
21103;SDS011;10710;53.398;-1.514;2023-04-06T07:33:42;1.05;;;0.90;;
21103;SDS011;10710;53.398;-1.514;2023-04-06T07:36:26;2.97;;;0.90;;
21103;SDS011;10710;53.398;-1.514;2023-04-06T07:39:10;2.28;;;1.77;;
21103;SDS011;10710;53.398;-1.514;2023-04-06T07:41:54;4.20;;;0.80;;
21103;SDS011;10710;53.398;-1.514;2023-04-06T07:44:39;1.50;;;0.55;;
21103;SDS011;10710;53.398;-1.514;2023-04-06T07:47:23;3.50;;;1.30;;
21103;SDS011;10710;53.398;-1.514;2023-04-06T07:50:08;10.02;;;3.40;;
21103;SDS011;10710;53.398;-1.514;2023-04-06T07:52:53;4.00;;;1.20;;
21103;SDS011;10710;53.398;-1.514;2023-04-06T07:55:37;5.97;;;1.70;;
21103;SDS011;10710;53.398;-1.514;2023-04-06T07:58:21;7.22;;;2.83;;
21103;SDS011;10710;53.398;-1.514;2023-04-06T08:01:05;4.20;;;2.17;;
21103;SDS011;10710;53.398;-1.514;2023-04-06T08:03:50;10.20;;;3.80;;
21103;SDS011;10710;53.398;-1.514;2023-04-06T08:06:34;5.07;;;2.20;;
21103;SDS011;10710;53.398;-1.514;2023-04-06T08:09:20;4.40;;;1.40;;
21103;SDS011;10710;53.398;-1.514;2023-04-06T08:12:04;4.25;;;1.30;;
21103;SDS011;10710;53.398;-1.514;2023-04-06T08:14:49;2.45;;;1.10;;
21103;SDS011;10710;53.398;-1.514;2023-04-06T08:17:33;3.20;;;1.02;;
21103;SDS011;10710;53.398;-1.514;2023-04-06T08:20:17;5.80;;;0.82;;
21103;SDS011;10710;53.398;-1.514;2023-04-06T08:23:01;2.70;;;1.20;;
21103;SDS011;10710;53.398;-1.514;2023-04-06T08:25:46;3.80;;;1.40;;
21103;SDS011;10710;53.398;-1.514;2023-04-06T08:28:30;4.55;;;1.38;;
21103;SDS011;10710;53.398;-1.514;2023-04-06T08:31:15;1.35;;;1.15;;
21103;SDS011;10710;53.398;-1.514;2023-04-06T08:33:59;4.53;;;0.90;;
21103;SDS011;10710;53.398;-1.514;2023-04-06T08:36:43;5.20;;;1.40;;
21103;SDS011;10710;53.398;-1.514;2023-04-06T08:39:29;3.42;;;1.10;;
21103;SDS011;10710;53.398;-1.514;2023-04-06T08:42:16;1.85;;;0.90;;
21103;SDS011;10710;53.398;-1.514;2023-04-06T08:45:08;7.13;;;1.23;;
21103;SDS011;10710;53.398;-1.514;2023-04-06T08:47:53;3.83;;;0.93;;
21103;SDS011;10710;53.398;-1.514;2023-04-06T08:50:40;3.00;;;0.80;;
21103;SDS011;10710;53.398;-1.514;2023-04-06T08:53:25;4.50;;;0.70;;
21103;SDS011;10710;53.398;-1.514;2023-04-06T08:56:10;6.70;;;1.45;;
21103;SDS011;10710;53.398;-1.514;2023-04-06T08:58:55;1.50;;;1.07;;
21103;SDS011;10710;53.398;-1.514;2023-04-06T09:01:40;2.25;;;1.05;;
21103;SDS011;10710;53.398;-1.514;2023-04-06T09:04:28;7.65;;;1.40;;
21103;SDS011;10710;53.398;-1.514;2023-04-06T09:07:13;6.63;;;1.20;;
21103;SDS011;10710;53.398;-1.514;2023-04-06T09:09:58;9.90;;;1.35;;
21103;SDS011;10710;53.398;-1.514;2023-04-06T09:12:43;6.67;;;1.30;;
21103;SDS011;10710;53.398;-1.514;2023-04-06T09:15:28;4.63;;;1.38;;
21103;SDS011;10710;53.398;-1.514;2023-04-06T09:18:11;3.55;;;1.27;;
21103;SDS011;10710;53.398;-1.514;2023-04-06T09:20:57;2.95;;;1.00;;
21103;SDS011;10710;53.398;-1.514;2023-04-06T09:23:57;4.87;;;1.13;;
21103;SDS011;10710;53.398;-1.514;2023-04-06T09:26:45;8.70;;;1.63;;
21103;SDS011;10710;53.398;-1.514;2023-04-06T09:29:30;5.80;;;1.40;;
21103;SDS011;10710;53.398;-1.514;2023-04-06T09:32:15;3.13;;;0.80;;
21103;SDS011;10710;53.398;-1.514;2023-04-06T09:35:07;5.18;;;1.85;;
21103;SDS011;10710;53.398;-1.514;2023-04-06T09:37:52;6.25;;;1.13;;
21103;SDS011;10710;53.398;-1.514;2023-04-06T09:40:46;4.20;;;1.10;;
21103;SDS011;10710;53.398;-1.514;2023-04-06T09:43:34;3.75;;;1.00;;
21103;SDS011;10710;53.398;-1.514;2023-04-06T09:46:19;6.05;;;1.42;;
21103;SDS011;10710;53.398;-1.514;2023-04-06T09:49:06;5.35;;;0.80;;
21103;SDS011;10710;53.398;-1.514;2023-04-06T09:52:02;2.58;;;0.70;;
21103;SDS011;10710;53.398;-1.514;2023-04-06T09:54:48;1.90;;;0.70;;
21103;SDS011;10710;53.398;-1.514;2023-04-06T09:57:45;4.95;;;0.93;;
21103;SDS011;10710;53.398;-1.514;2023-04-06T10:00:34;4.57;;;1.13;;
21103;SDS011;10710;53.398;-1.514;2023-04-06T10:06:35;2.60;;;0.93;;
21103;SDS011;10710;53.398;-1.514;2023-04-06T10:09:22;5.03;;;1.30;;
21103;SDS011;10710;53.398;-1.514;2023-04-06T10:12:09;4.25;;;1.15;;
21103;SDS011;10710;53.398;-1.514;2023-04-06T10:14:54;5.67;;;1.17;;
21103;SDS011;10710;53.398;-1.514;2023-04-06T10:17:40;3.83;;;1.13;;
21103;SDS011;10710;53.398;-1.514;2023-04-06T10:23:19;4.78;;;0.98;;
21103;SDS011;10710;53.398;-1.514;2023-04-06T10:26:19;6.93;;;1.38;;
21103;SDS011;10710;53.398;-1.514;2023-04-06T10:29:05;5.55;;;0.90;;
21103;SDS011;10710;53.398;-1.514;2023-04-06T10:31:49;6.68;;;1.20;;
21103;SDS011;10710;53.398;-1.514;2023-04-06T10:34:34;3.30;;;0.85;;
21103;SDS011;10710;53.398;-1.514;2023-04-06T10:37:19;2.25;;;0.70;;
21103;SDS011;10710;53.398;-1.514;2023-04-06T10:40:05;3.10;;;0.90;;
21103;SDS011;10710;53.398;-1.514;2023-04-06T10:42:50;2.33;;;0.70;;
21103;SDS011;10710;53.398;-1.514;2023-04-06T10:45:36;4.10;;;1.20;;
21103;SDS011;10710;53.398;-1.514;2023-04-06T10:48:21;6.50;;;1.08;;
21103;SDS011;10710;53.398;-1.514;2023-04-06T10:51:14;3.35;;;1.00;;
21103;SDS011;10710;53.398;-1.514;2023-04-06T10:54:00;2.58;;;0.73;;
21103;SDS011;10710;53.398;-1.514;2023-04-06T10:56:47;3.23;;;1.10;;
21103;SDS011;10710;53.398;-1.514;2023-04-06T10:59:31;4.43;;;1.15;;
21103;SDS011;10710;53.398;-1.514;2023-04-06T11:02:19;4.22;;;1.00;;
21103;SDS011;10710;53.398;-1.514;2023-04-06T11:05:05;12.75;;;2.00;;
21103;SDS011;10710;53.398;-1.514;2023-04-06T11:07:50;3.58;;;0.90;;
21103;SDS011;10710;53.398;-1.514;2023-04-06T11:10:34;2.03;;;0.98;;
21103;SDS011;10710;53.398;-1.514;2023-04-06T11:13:18;5.15;;;0.80;;
21103;SDS011;10710;53.398;-1.514;2023-04-06T11:16:03;2.22;;;0.90;;
21103;SDS011;10710;53.398;-1.514;2023-04-06T11:21:45;2.40;;;0.88;;
21103;SDS011;10710;53.398;-1.514;2023-04-06T11:24:31;3.17;;;1.08;;
21103;SDS011;10710;53.398;-1.514;2023-04-06T11:27:15;2.30;;;0.70;;
21103;SDS011;10710;53.398;-1.514;2023-04-06T11:30:00;3.92;;;0.98;;
21103;SDS011;10710;53.398;-1.514;2023-04-06T11:32:45;5.95;;;0.93;;
21103;SDS011;10710;53.398;-1.514;2023-04-06T11:35:31;2.35;;;0.80;;
21103;SDS011;10710;53.398;-1.514;2023-04-06T11:38:17;1.77;;;0.52;;
21103;SDS011;10710;53.398;-1.514;2023-04-06T11:41:03;3.70;;;1.08;;
21103;SDS011;10710;53.398;-1.514;2023-04-06T11:43:48;2.10;;;1.02;;
21103;SDS011;10710;53.398;-1.514;2023-04-06T11:46:33;3.75;;;1.10;;
21103;SDS011;10710;53.398;-1.514;2023-04-06T11:49:17;4.03;;;1.02;;
21103;SDS011;10710;53.398;-1.514;2023-04-06T11:52:01;4.85;;;1.10;;
21103;SDS011;10710;53.398;-1.514;2023-04-06T11:54:49;3.60;;;1.17;;
21103;SDS011;10710;53.398;-1.514;2023-04-06T11:57:35;4.00;;;0.90;;
21103;SDS011;10710;53.398;-1.514;2023-04-06T12:00:20;2.45;;;1.08;;
21103;SDS011;10710;53.398;-1.514;2023-04-06T12:03:04;4.53;;;0.95;;
21103;SDS011;10710;53.398;-1.514;2023-04-06T12:05:48;3.73;;;1.30;;
21103;SDS011;10710;53.398;-1.514;2023-04-06T12:08:33;7.25;;;1.13;;
21103;SDS011;10710;53.398;-1.514;2023-04-06T12:11:17;3.35;;;0.80;;
21103;SDS011;10710;53.398;-1.514;2023-04-06T12:14:04;2.80;;;0.80;;
21103;SDS011;10710;53.398;-1.514;2023-04-06T12:16:48;2.40;;;0.90;;
21103;SDS011;10710;53.398;-1.514;2023-04-06T12:19:33;4.70;;;1.10;;
21103;SDS011;10710;53.398;-1.514;2023-04-06T12:22:18;1.95;;;0.75;;
21103;SDS011;10710;53.398;-1.514;2023-04-06T12:25:02;7.05;;;0.70;;
21103;SDS011;10710;53.398;-1.514;2023-04-06T12:27:47;3.25;;;0.90;;
21103;SDS011;10710;53.398;-1.514;2023-04-06T12:30:31;3.60;;;0.70;;
21103;SDS011;10710;53.398;-1.514;2023-04-06T12:33:15;3.75;;;0.95;;
21103;SDS011;10710;53.398;-1.514;2023-04-06T12:35:59;4.03;;;1.00;;
21103;SDS011;10710;53.398;-1.514;2023-04-06T12:38:44;3.35;;;1.05;;
21103;SDS011;10710;53.398;-1.514;2023-04-06T12:41:29;5.43;;;0.90;;
21103;SDS011;10710;53.398;-1.514;2023-04-06T12:44:13;2.63;;;0.88;;
21103;SDS011;10710;53.398;-1.514;2023-04-06T12:46:58;5.68;;;0.82;;
21103;SDS011;10710;53.398;-1.514;2023-04-06T12:49:42;4.17;;;1.00;;
21103;SDS011;10710;53.398;-1.514;2023-04-06T12:52:27;4.63;;;0.90;;
21103;SDS011;10710;53.398;-1.514;2023-04-06T12:55:14;4.20;;;1.45;;
21103;SDS011;10710;53.398;-1.514;2023-04-06T12:57:59;3.72;;;0.80;;
21103;SDS011;10710;53.398;-1.514;2023-04-06T13:00:44;2.40;;;0.60;;
21103;SDS011;10710;53.398;-1.514;2023-04-06T13:03:29;2.63;;;0.68;;
21103;SDS011;10710;53.398;-1.514;2023-04-06T13:06:14;1.80;;;0.60;;
21103;SDS011;10710;53.398;-1.514;2023-04-06T13:08:58;2.63;;;0.52;;
21103;SDS011;10710;53.398;-1.514;2023-04-06T13:11:43;2.33;;;0.60;;
21103;SDS011;10710;53.398;-1.514;2023-04-06T13:14:28;3.17;;;0.73;;
21103;SDS011;10710;53.398;-1.514;2023-04-06T13:17:12;3.17;;;0.75;;
21103;SDS011;10710;53.398;-1.514;2023-04-06T13:19:56;8.10;;;1.10;;
21103;SDS011;10710;53.398;-1.514;2023-04-06T13:22:41;2.92;;;0.50;;
21103;SDS011;10710;53.398;-1.514;2023-04-06T13:25:25;2.40;;;0.68;;
21103;SDS011;10710;53.398;-1.514;2023-04-06T13:28:10;1.88;;;0.80;;
21103;SDS011;10710;53.398;-1.514;2023-04-06T13:30:55;1.58;;;0.90;;
21103;SDS011;10710;53.398;-1.514;2023-04-06T13:33:42;3.75;;;1.30;;
21103;SDS011;10710;53.398;-1.514;2023-04-06T13:36:26;2.60;;;0.50;;
21103;SDS011;10710;53.398;-1.514;2023-04-06T13:39:10;2.97;;;1.00;;
21103;SDS011;10710;53.398;-1.514;2023-04-06T13:41:55;2.83;;;1.00;;
21103;SDS011;10710;53.398;-1.514;2023-04-06T13:44:40;1.52;;;0.77;;
21103;SDS011;10710;53.398;-1.514;2023-04-06T13:47:24;2.50;;;0.70;;
21103;SDS011;10710;53.398;-1.514;2023-04-06T13:50:09;4.47;;;1.33;;
21103;SDS011;10710;53.398;-1.514;2023-04-06T13:52:54;1.70;;;0.57;;
21103;SDS011;10710;53.398;-1.514;2023-04-06T13:55:38;0.85;;;0.73;;
21103;SDS011;10710;53.398;-1.514;2023-04-06T13:58:23;6.78;;;1.80;;
21103;SDS011;10710;53.398;-1.514;2023-04-06T14:01:07;2.75;;;1.15;;
21103;SDS011;10710;53.398;-1.514;2023-04-06T14:03:52;7.68;;;0.98;;
21103;SDS011;10710;53.398;-1.514;2023-04-06T14:06:37;2.47;;;0.80;;
21103;SDS011;10710;53.398;-1.514;2023-04-06T14:09:21;1.73;;;0.82;;
21103;SDS011;10710;53.398;-1.514;2023-04-06T14:12:06;6.32;;;0.75;;
21103;SDS011;10710;53.398;-1.514;2023-04-06T14:14:50;4.75;;;1.17;;
21103;SDS011;10710;53.398;-1.514;2023-04-06T14:17:35;5.57;;;1.42;;
21103;SDS011;10710;53.398;-1.514;2023-04-06T14:20:19;2.70;;;0.88;;
21103;SDS011;10710;53.398;-1.514;2023-04-06T14:23:04;2.83;;;1.10;;
21103;SDS011;10710;53.398;-1.514;2023-04-06T14:25:49;2.95;;;1.08;;
21103;SDS011;10710;53.398;-1.514;2023-04-06T14:28:33;1.93;;;0.80;;
21103;SDS011;10710;53.398;-1.514;2023-04-06T14:31:19;3.25;;;1.08;;
21103;SDS011;10710;53.398;-1.514;2023-04-06T14:34:03;1.50;;;0.90;;
21103;SDS011;10710;53.398;-1.514;2023-04-06T14:36:48;3.30;;;1.00;;
21103;SDS011;10710;53.398;-1.514;2023-04-06T14:39:33;1.70;;;0.75;;
21103;SDS011;10710;53.398;-1.514;2023-04-06T14:42:17;1.70;;;1.00;;
21103;SDS011;10710;53.398;-1.514;2023-04-06T14:45:01;3.58;;;0.82;;
21103;SDS011;10710;53.398;-1.514;2023-04-06T14:47:46;3.78;;;0.90;;
21103;SDS011;10710;53.398;-1.514;2023-04-06T14:50:31;4.65;;;1.00;;
21103;SDS011;10710;53.398;-1.514;2023-04-06T14:53:15;3.55;;;1.35;;
21103;SDS011;10710;53.398;-1.514;2023-04-06T14:55:59;2.10;;;0.73;;
21103;SDS011;10710;53.398;-1.514;2023-04-06T14:58:43;1.27;;;0.70;;
21103;SDS011;10710;53.398;-1.514;2023-04-06T15:01:28;3.15;;;0.80;;
21103;SDS011;10710;53.398;-1.514;2023-04-06T15:04:13;2.80;;;0.60;;
21103;SDS011;10710;53.398;-1.514;2023-04-06T15:06:58;5.75;;;0.88;;
21103;SDS011;10710;53.398;-1.514;2023-04-06T15:09:43;0.80;;;0.80;;
21103;SDS011;10710;53.398;-1.514;2023-04-06T15:12:27;1.65;;;0.73;;
21103;SDS011;10710;53.398;-1.514;2023-04-06T15:15:12;2.00;;;0.68;;
21103;SDS011;10710;53.398;-1.514;2023-04-06T15:17:57;3.10;;;0.73;;
21103;SDS011;10710;53.398;-1.514;2023-04-06T15:20:41;1.95;;;0.63;;
21103;SDS011;10710;53.398;-1.514;2023-04-06T15:23:25;0.77;;;0.50;;
21103;SDS011;10710;53.398;-1.514;2023-04-06T15:26:13;2.20;;;0.50;;
21103;SDS011;10710;53.398;-1.514;2023-04-06T15:28:57;1.63;;;0.60;;
21103;SDS011;10710;53.398;-1.514;2023-04-06T15:31:43;1.00;;;0.50;;
21103;SDS011;10710;53.398;-1.514;2023-04-06T15:34:30;0.60;;;0.40;;
21103;SDS011;10710;53.398;-1.514;2023-04-06T15:37:16;1.90;;;0.60;;
21103;SDS011;10710;53.398;-1.514;2023-04-06T15:40:00;3.28;;;0.57;;
21103;SDS011;10710;53.398;-1.514;2023-04-06T15:42:44;2.40;;;0.87;;
21103;SDS011;10710;53.398;-1.514;2023-04-06T15:45:29;0.30;;;0.30;;
21103;SDS011;10710;53.398;-1.514;2023-04-06T15:48:13;1.85;;;0.60;;
21103;SDS011;10710;53.398;-1.514;2023-04-06T15:50:57;1.38;;;0.47;;
21103;SDS011;10710;53.398;-1.514;2023-04-06T15:53:42;2.38;;;1.00;;
21103;SDS011;10710;53.398;-1.514;2023-04-06T15:56:27;0.45;;;0.45;;
21103;SDS011;10710;53.398;-1.514;2023-04-06T15:59:11;1.73;;;0.70;;
21103;SDS011;10710;53.398;-1.514;2023-04-06T16:01:55;1.40;;;0.47;;
21103;SDS011;10710;53.398;-1.514;2023-04-06T16:04:39;2.08;;;0.45;;
21103;SDS011;10710;53.398;-1.514;2023-04-06T16:07:24;1.40;;;0.50;;
21103;SDS011;10710;53.398;-1.514;2023-04-06T16:10:08;2.60;;;0.90;;
21103;SDS011;10710;53.398;-1.514;2023-04-06T16:12:53;2.83;;;0.50;;
21103;SDS011;10710;53.398;-1.514;2023-04-06T16:15:38;2.15;;;0.43;;
21103;SDS011;10710;53.398;-1.514;2023-04-06T16:18:22;2.88;;;0.65;;
21103;SDS011;10710;53.398;-1.514;2023-04-06T16:21:06;0.55;;;0.40;;
21103;SDS011;10710;53.398;-1.514;2023-04-06T16:23:51;1.25;;;0.93;;
21103;SDS011;10710;53.398;-1.514;2023-04-06T16:26:36;1.90;;;0.40;;